createdAt,value
2022-11-16T00:01:49.995Z,8.35
2022-11-16T00:04:56.105Z,7.63
2022-11-16T00:08:01.847Z,8.40
2022-11-16T00:11:14.557Z,9.07
2022-11-16T00:14:22.499Z,7.97
2022-11-16T00:17:28.242Z,9.13
2022-11-16T00:20:34.023Z,8.15
2022-11-16T00:23:40.218Z,8.63
2022-11-16T00:26:46.955Z,8.57
2022-11-16T00:29:52.388Z,8.60
2022-11-16T00:33:01.803Z,8.65
2022-11-16T00:36:10.782Z,8.82
2022-11-16T00:39:17.591Z,9.48
2022-11-16T00:42:24.500Z,9.23
2022-11-16T00:45:30.149Z,9.65
2022-11-16T00:48:36.304Z,9.52
2022-11-16T00:51:42.713Z,12.38
2022-11-16T00:54:49.068Z,13.88
2022-11-16T00:57:54.480Z,13.88
2022-11-16T01:01:07.271Z,14.30
2022-11-16T01:04:12.985Z,14.15
2022-11-16T01:07:18.727Z,14.25
2022-11-16T01:10:28.067Z,15.10
2022-11-16T01:13:33.653Z,15.00
2022-11-16T01:16:39.572Z,15.55
2022-11-16T01:19:45.291Z,16.85
2022-11-16T01:22:51.237Z,17.65
2022-11-16T01:25:58.399Z,16.27
2022-11-16T01:29:05.008Z,16.92
2022-11-16T01:32:15.677Z,17.77
2022-11-16T01:35:22.706Z,17.55
2022-11-16T01:38:30.018Z,16.40
2022-11-16T01:41:37.623Z,15.77
2022-11-16T01:44:44.560Z,16.73
2022-11-16T01:47:55.527Z,16.20
2022-11-16T01:54:14.236Z,16.10
2022-11-16T01:57:38.558Z,15.48
2022-11-16T02:00:49.325Z,16.70
2022-11-16T02:04:17.707Z,15.88
2022-11-16T02:07:59.419Z,16.13
2022-11-16T02:11:29.311Z,14.85
2022-11-16T02:14:57.206Z,16.63
2022-11-16T02:18:12.353Z,15.80
2022-11-16T02:21:32.380Z,16.20
2022-11-16T02:24:49.785Z,16.10
2022-11-16T02:28:20.743Z,15.90
2022-11-16T02:31:34.069Z,15.25
2022-11-16T02:35:15.425Z,16.85
2022-11-16T02:38:26.799Z,15.98
2022-11-16T02:41:35.873Z,15.75
2022-11-16T02:44:46.965Z,14.95
2022-11-16T02:47:59.389Z,15.93
2022-11-16T02:51:07.422Z,15.35
2022-11-16T02:54:18.701Z,15.73
2022-11-16T02:57:39.865Z,14.57
2022-11-16T03:01:07.470Z,15.73
2022-11-16T03:04:27.124Z,14.75
2022-11-16T03:07:40.294Z,14.10
2022-11-16T03:11:09.807Z,14.85
2022-11-16T03:14:20.783Z,16.13
2022-11-16T03:17:42.844Z,13.23
2022-11-16T03:20:54.468Z,13.13
2022-11-16T03:24:00.800Z,13.52
2022-11-16T03:27:15.470Z,14.20
2022-11-16T03:30:27.631Z,14.85
2022-11-16T03:33:41.616Z,12.80
2022-11-16T03:36:50.937Z,13.43
2022-11-16T03:39:59.280Z,11.57
2022-11-16T03:43:07.207Z,11.90
2022-11-16T03:46:14.484Z,12.55
2022-11-16T03:49:25.379Z,12.20
2022-11-16T03:52:33.647Z,12.73
2022-11-16T03:55:39.525Z,12.05
2022-11-16T03:58:45.572Z,13.43
2022-11-16T04:01:51.588Z,12.63
2022-11-16T04:05:17.191Z,12.30
2022-11-16T04:08:41.243Z,13.32
2022-11-16T04:12:06.342Z,12.80
2022-11-16T04:15:30.333Z,13.23
2022-11-16T04:18:55.794Z,13.68
2022-11-16T04:22:25.537Z,13.45
2022-11-16T04:25:36.232Z,13.43
2022-11-16T04:28:42.606Z,13.20
2022-11-16T04:32:07.977Z,13.43
2022-11-16T04:35:32.013Z,12.48
2022-11-16T04:38:37.810Z,14.05
2022-11-16T04:42:02.751Z,13.70
2022-11-16T04:45:28.714Z,13.07
2022-11-16T04:48:35.178Z,11.82
2022-11-16T04:51:42.161Z,13.02
2022-11-16T04:54:48.064Z,11.70
2022-11-16T04:57:54.829Z,12.40
2022-11-16T05:01:01.703Z,12.10
2022-11-16T05:04:07.674Z,12.93
2022-11-16T05:07:15.840Z,11.70
2022-11-16T05:10:24.040Z,11.75
2022-11-16T05:13:31.530Z,11.43
2022-11-16T05:16:37.724Z,11.77
2022-11-16T05:20:02.203Z,11.57
2022-11-16T05:23:33.404Z,11.18
2022-11-16T05:26:45.235Z,10.85
2022-11-16T05:29:51.844Z,9.68
2022-11-16T05:33:01.226Z,11.05
2022-11-16T05:36:11.340Z,9.98
2022-11-16T05:39:18.835Z,9.93
2022-11-16T05:42:25.326Z,10.40
2022-11-16T05:45:31.871Z,9.88
2022-11-16T05:48:39.569Z,9.35
2022-11-16T05:51:47.895Z,9.55
2022-11-16T05:54:56.170Z,8.63
2022-11-16T05:58:02.474Z,7.93
2022-11-16T06:01:09.158Z,7.90
2022-11-16T06:04:16.270Z,8.70
2022-11-16T06:07:22.150Z,8.40
2022-11-16T06:10:28.485Z,8.73
2022-11-16T06:13:35.100Z,9.10
2022-11-16T06:16:41.176Z,8.88
2022-11-16T06:19:49.330Z,8.45
2022-11-16T06:22:55.377Z,9.00
2022-11-16T06:26:02.092Z,7.57
2022-11-16T06:29:09.351Z,8.20
2022-11-16T06:32:15.181Z,8.27
2022-11-16T06:35:21.384Z,8.85
2022-11-16T06:38:27.975Z,8.40
2022-11-16T06:41:40.193Z,7.35
2022-11-16T06:44:49.536Z,6.82
2022-11-16T06:48:00.302Z,6.72
2022-11-16T06:51:06.778Z,7.15
2022-11-16T06:54:13.251Z,6.43
2022-11-16T06:57:20.176Z,7.53
2022-11-16T07:00:26.853Z,6.65
2022-11-16T07:03:33.114Z,6.13
2022-11-16T07:06:42.250Z,6.03
2022-11-16T07:09:48.757Z,5.93
2022-11-16T07:12:54.723Z,5.82
2022-11-16T07:16:05.191Z,5.75
2022-11-16T07:19:11.259Z,6.55
2022-11-16T07:22:18.407Z,5.95
2022-11-16T07:25:24.569Z,6.88
2022-11-16T07:28:33.481Z,5.53
2022-11-16T07:31:40.403Z,5.97
2022-11-16T07:35:05.707Z,5.60
2022-11-16T07:38:17.735Z,5.43
2022-11-16T07:41:24.573Z,5.68
2022-11-16T07:44:50.537Z,5.90
2022-11-16T07:47:56.055Z,4.93
2022-11-16T07:54:50.246Z,6.05
2022-11-16T07:57:57.421Z,4.90
2022-11-16T08:01:05.621Z,5.63
2022-11-16T08:04:13.021Z,4.70
2022-11-16T08:07:19.472Z,5.43
2022-11-16T08:13:40.200Z,5.53
2022-11-16T08:16:45.975Z,4.80
2022-11-16T08:19:54.106Z,5.15
2022-11-16T08:23:01.640Z,5.00
2022-11-16T08:26:17.546Z,5.38
2022-11-16T08:29:28.214Z,5.18
2022-11-16T08:32:39.380Z,5.00
2022-11-16T08:35:46.062Z,5.00
2022-11-16T08:38:52.865Z,5.00
2022-11-16T08:42:01.320Z,5.25
2022-11-16T08:45:07.507Z,5.90
2022-11-16T08:48:13.705Z,5.45
2022-11-16T08:51:20.799Z,5.47
2022-11-16T08:54:33.476Z,5.55
2022-11-16T08:57:39.882Z,5.93
2022-11-16T09:00:48.832Z,6.13
2022-11-16T09:03:55.307Z,5.78
2022-11-16T09:07:00.934Z,7.28
2022-11-16T09:10:07.930Z,6.88
2022-11-16T09:13:13.770Z,7.25
2022-11-16T09:16:21.265Z,7.28
2022-11-16T09:19:27.059Z,7.53
2022-11-16T09:22:32.681Z,7.03
2022-11-16T09:25:38.126Z,6.90
2022-11-16T09:28:43.506Z,7.45
2022-11-16T09:31:49.035Z,7.00
2022-11-16T09:34:54.320Z,6.97
2022-11-16T09:37:59.925Z,7.50
2022-11-16T09:41:17.582Z,8.02
2022-11-16T09:44:31.726Z,7.78
2022-11-16T09:47:44.677Z,7.30
2022-11-16T09:50:58.147Z,7.75
2022-11-16T09:54:13.916Z,8.63
2022-11-16T09:57:27.302Z,8.48
2022-11-16T10:00:35.113Z,8.07
2022-11-16T10:03:44.744Z,6.97
2022-11-16T10:07:16.921Z,7.72
2022-11-16T10:10:39.691Z,8.65
2022-11-16T10:13:50.872Z,8.25
2022-11-16T10:17:14.634Z,8.65
2022-11-16T10:20:58.217Z,8.73
2022-11-16T10:24:22.410Z,8.32
2022-11-16T10:27:45.079Z,8.35
2022-11-16T10:31:16.427Z,8.38
2022-11-16T10:34:44.356Z,8.50
2022-11-16T10:37:52.086Z,8.90
2022-11-16T10:41:04.471Z,8.52
2022-11-16T10:44:26.252Z,9.90
2022-11-16T10:47:43.195Z,9.27
2022-11-16T10:50:51.842Z,9.40
2022-11-16T10:53:57.689Z,8.60
2022-11-16T10:57:06.132Z,8.52
2022-11-16T11:00:13.409Z,7.85
2022-11-16T11:03:32.129Z,9.07
2022-11-16T11:06:40.672Z,7.68
2022-11-16T11:09:53.812Z,8.48
2022-11-16T11:13:10.398Z,8.63
2022-11-16T11:16:18.392Z,8.05
2022-11-16T11:19:29.688Z,8.27
2022-11-16T11:22:49.268Z,7.18
2022-11-16T11:26:01.116Z,7.35
2022-11-16T11:29:31.014Z,7.18
2022-11-16T11:35:45.771Z,6.38
2022-11-16T11:39:03.806Z,5.90
2022-11-16T11:42:15.568Z,6.47
2022-11-16T11:45:35.798Z,6.53
2022-11-16T11:48:50.099Z,6.32
2022-11-16T11:51:59.502Z,5.93
2022-11-16T11:55:07.854Z,5.68
2022-11-16T11:58:18.963Z,5.72
2022-11-16T12:01:51.045Z,7.93
2022-11-16T12:05:17.753Z,6.90
2022-11-16T12:09:03.744Z,5.93
2022-11-16T12:12:37.989Z,5.72
2022-11-16T12:16:23.689Z,4.70
2022-11-16T12:19:38.037Z,5.70
2022-11-16T12:23:16.857Z,5.60
2022-11-16T12:26:57.632Z,5.43
2022-11-16T12:30:17.679Z,4.53
2022-11-16T12:33:54.903Z,4.88
2022-11-16T12:37:16.764Z,5.07
2022-11-16T12:40:28.196Z,4.90
2022-11-16T12:44:03.169Z,4.65
2022-11-16T12:47:47.884Z,5.18
2022-11-16T12:51:35.216Z,5.38
2022-11-16T12:58:38.996Z,4.63
2022-11-16T13:02:00.822Z,5.68
2022-11-16T13:05:49.207Z,5.25
2022-11-16T13:09:10.978Z,5.22
2022-11-16T13:12:36.445Z,4.60
2022-11-16T13:15:43.578Z,6.13
2022-11-16T13:19:07.365Z,6.10
2022-11-16T13:22:23.568Z,5.78
2022-11-16T13:25:57.607Z,5.70
2022-11-16T13:29:46.245Z,6.07
2022-11-16T13:33:23.835Z,4.88
2022-11-16T13:36:43.828Z,6.75
2022-11-16T13:40:16.758Z,7.07
2022-11-16T13:43:22.968Z,6.15
2022-11-16T13:46:57.063Z,6.65
2022-11-16T13:50:06.137Z,6.57
2022-11-16T13:57:35.024Z,6.18
2022-11-16T14:01:01.577Z,6.22
2022-11-16T14:04:44.303Z,6.22
2022-11-16T14:08:37.847Z,8.85
2022-11-16T14:11:44.029Z,8.88
2022-11-16T14:15:19.469Z,8.73
2022-11-16T14:18:34.654Z,9.23
2022-11-16T14:22:10.864Z,9.35
2022-11-16T14:25:39.070Z,9.85
2022-11-16T14:29:09.188Z,8.70
2022-11-16T14:32:44.841Z,9.30
2022-11-16T14:36:10.570Z,10.18
2022-11-16T14:39:27.156Z,10.98
2022-11-16T14:43:15.474Z,11.10
2022-11-16T14:46:38.661Z,11.15
2022-11-16T14:50:02.091Z,10.20
2022-11-16T14:53:12.628Z,9.93
2022-11-16T14:56:38.045Z,9.32
2022-11-16T14:59:44.024Z,10.10
2022-11-16T15:03:14.528Z,10.15
2022-11-16T15:06:21.018Z,11.65
2022-11-16T15:09:47.877Z,11.88
2022-11-16T15:12:55.679Z,11.25
2022-11-16T15:16:30.464Z,10.05
2022-11-16T15:19:36.404Z,10.98
2022-11-16T15:23:01.739Z,9.80
2022-11-16T15:26:07.476Z,10.70
2022-11-16T15:29:39.505Z,10.13
2022-11-16T15:32:47.969Z,9.98
2022-11-16T15:36:11.916Z,10.75
2022-11-16T15:39:21.677Z,10.68
2022-11-16T15:42:46.505Z,10.00
2022-11-16T15:45:52.767Z,10.32
2022-11-16T15:49:17.446Z,9.48
2022-11-16T15:52:55.626Z,10.80
2022-11-16T15:56:20.170Z,10.77
2022-11-16T15:59:32.927Z,9.52
2022-11-16T16:02:56.528Z,10.50
2022-11-16T16:06:03.471Z,9.18
2022-11-16T16:09:30.803Z,9.43
2022-11-16T16:12:49.833Z,8.63
2022-11-16T16:16:32.791Z,8.55
2022-11-16T16:19:44.337Z,9.10
2022-11-16T16:22:50.743Z,9.60
2022-11-16T16:25:56.175Z,11.60
2022-11-16T16:29:01.768Z,11.02
2022-11-16T16:32:13.286Z,10.43
2022-11-16T16:35:23.680Z,9.85
2022-11-16T16:38:29.616Z,9.02
2022-11-16T16:41:35.123Z,9.07
2022-11-16T16:44:42.200Z,10.43
2022-11-16T16:47:48.299Z,10.35
2022-11-16T16:50:53.438Z,9.82
2022-11-16T16:53:59.167Z,8.68
2022-11-16T16:57:04.830Z,8.60
2022-11-16T17:00:11.870Z,10.38
2022-11-16T17:03:17.085Z,10.48
2022-11-16T17:06:23.718Z,10.15
2022-11-16T17:09:29.915Z,11.00
2022-11-16T17:12:36.088Z,10.80
2022-11-16T17:15:42.119Z,12.38
2022-11-16T17:18:48.318Z,12.18
2022-11-16T17:21:54.329Z,11.18
2022-11-16T17:25:00.378Z,11.27
2022-11-16T17:28:05.890Z,12.80
2022-11-16T17:31:13.047Z,11.95
2022-11-16T17:34:18.462Z,12.50
2022-11-16T17:37:24.320Z,11.57
2022-11-16T17:40:30.091Z,11.52
2022-11-16T17:43:37.039Z,12.60
2022-11-16T17:46:43.535Z,10.05
2022-11-16T17:49:49.486Z,12.38
2022-11-16T17:52:54.701Z,12.18
2022-11-16T17:56:00.127Z,12.32
2022-11-16T17:59:05.735Z,10.93
2022-11-16T18:02:12.131Z,13.43
2022-11-16T18:05:17.548Z,12.30
2022-11-16T18:08:22.848Z,14.45
2022-11-16T18:11:28.911Z,12.80
2022-11-16T18:14:34.492Z,12.85
2022-11-16T18:17:40.080Z,12.27
2022-11-16T18:20:51.239Z,14.88
2022-11-16T18:23:59.786Z,15.23
2022-11-16T18:27:05.090Z,13.90
2022-11-16T18:30:11.206Z,14.23
2022-11-16T18:33:16.963Z,16.38
2022-11-16T18:36:23.065Z,16.08
2022-11-16T18:39:28.419Z,14.88
2022-11-16T18:42:33.352Z,14.77
2022-11-16T18:45:38.935Z,16.35
2022-11-16T18:48:46.967Z,14.73
2022-11-16T18:51:52.425Z,14.40
2022-11-16T18:54:58.355Z,14.50
2022-11-16T18:58:13.012Z,14.85
2022-11-16T19:01:29.258Z,14.32
2022-11-16T19:04:34.854Z,16.08
2022-11-16T19:07:43.018Z,15.55
2022-11-16T19:10:49.545Z,15.23
2022-11-16T19:13:57.678Z,15.85
2022-11-16T19:17:05.157Z,16.60
2022-11-16T19:20:12.025Z,16.48
2022-11-16T19:23:18.063Z,15.38
2022-11-16T19:26:25.608Z,16.02
2022-11-16T19:29:30.956Z,17.55
2022-11-16T19:32:38.325Z,15.48
2022-11-16T19:35:43.856Z,15.43
2022-11-16T19:38:49.260Z,15.32
2022-11-16T19:41:54.729Z,17.75
2022-11-16T19:45:00.550Z,16.65
2022-11-16T19:48:06.256Z,17.35
2022-11-16T19:51:23.975Z,16.80
2022-11-16T19:54:29.439Z,17.80
2022-11-16T19:57:34.727Z,17.50
2022-11-16T20:00:40.382Z,16.95
2022-11-16T20:03:47.039Z,17.73
2022-11-16T20:06:52.648Z,17.60
2022-11-16T20:09:59.121Z,17.00
2022-11-16T20:13:04.602Z,16.52
2022-11-16T20:16:12.427Z,17.33
2022-11-16T20:19:19.216Z,17.02
2022-11-16T20:22:24.944Z,18.88
2022-11-16T20:25:30.566Z,17.08
2022-11-16T20:28:37.799Z,16.08
2022-11-16T20:31:45.995Z,17.67
2022-11-16T20:34:51.706Z,17.15
2022-11-16T20:37:57.045Z,18.92
2022-11-16T20:41:15.852Z,17.88
2022-11-16T20:44:22.725Z,17.30
2022-11-16T20:47:28.503Z,16.85
2022-11-16T20:50:34.042Z,19.05
2022-11-16T20:53:40.037Z,20.05
2022-11-16T20:56:45.535Z,19.88
2022-11-16T20:59:51.137Z,20.27
2022-11-16T21:02:56.734Z,18.08
2022-11-16T21:06:02.216Z,18.13
2022-11-16T21:09:07.835Z,17.90
2022-11-16T21:12:32.424Z,18.67
2022-11-16T21:15:37.902Z,16.73
2022-11-16T21:18:43.788Z,18.92
2022-11-16T21:21:49.390Z,17.90
2022-11-16T21:24:54.586Z,17.75
2022-11-16T21:28:00.164Z,17.38
2022-11-16T21:31:08.968Z,17.83
2022-11-16T21:34:14.706Z,17.02
2022-11-16T21:37:20.118Z,16.20
2022-11-16T21:40:25.433Z,18.48
2022-11-16T21:43:34.320Z,16.58
2022-11-16T21:46:40.654Z,18.20
2022-11-16T21:50:08.653Z,17.10
2022-11-16T21:53:11.419Z,17.42
2022-11-16T21:56:19.197Z,16.67
2022-11-16T21:59:24.539Z,16.85
2022-11-16T22:02:30.366Z,18.55
2022-11-16T22:05:54.639Z,16.58
2022-11-16T22:09:00.541Z,17.95
2022-11-16T22:12:06.594Z,18.40
2022-11-16T22:15:12.649Z,17.40
2022-11-16T22:18:18.282Z,16.95
2022-11-16T22:21:23.879Z,17.70
2022-11-16T22:24:29.537Z,15.88
2022-11-16T22:27:47.058Z,15.45
2022-11-16T22:31:06.249Z,16.08
2022-11-16T22:34:11.741Z,16.27
2022-11-16T22:37:18.370Z,17.90
2022-11-16T22:40:23.813Z,17.42
2022-11-16T22:43:31.510Z,17.20
2022-11-16T22:46:36.772Z,15.85
2022-11-16T22:49:41.970Z,17.00
2022-11-16T22:52:47.246Z,16.75
2022-11-16T22:55:52.584Z,17.70
2022-11-16T22:58:59.320Z,17.27
2022-11-16T23:02:06.352Z,17.00
2022-11-16T23:05:11.960Z,16.88
2022-11-16T23:08:17.545Z,17.90
2022-11-16T23:11:43.134Z,17.33
2022-11-16T23:15:06.732Z,16.17
2022-11-16T23:18:12.215Z,16.92
2022-11-16T23:21:35.908Z,16.67
2022-11-16T23:25:00.572Z,15.07
2022-11-16T23:28:10.619Z,15.57
2022-11-16T23:31:15.979Z,15.98
2022-11-16T23:34:21.770Z,15.82
2022-11-16T23:37:27.492Z,15.48
2022-11-16T23:40:38.620Z,13.80
2022-11-16T23:43:59.434Z,12.80
2022-11-16T23:47:04.927Z,14.95
2022-11-16T23:50:10.340Z,16.60
2022-11-16T23:53:16.086Z,15.98
2022-11-16T23:56:22.584Z,16.23
2022-11-16T23:59:27.960Z,16.83
